Terminal Aerodrome Forecast
Issued by NWS Paducah, KY

Home | Current Version | Previous Version | Text Only | Print | Product List | Glossary On
Versions: 1 2 3 4 5 6 7 8 9 10 11 12 13 14 15 16 17 18
000
FTUS43 KPAH 271120
TAFEVV
TAF
KEVV 271120Z 2712/2812 32008KT P6SM BKN015
      TEMPO 2712/2715 SCT015 BKN025
     FM271500 34011KT P6SM BKN025
     FM271900 34012KT P6SM BKN035
     FM272300 33007KT P6SM SCT035
     FM280200 VRB02KT P6SM SKC=

USA.gov is the U.S. government's official web portal to all federal, state and local government web resources and services.